createdAt,value
2022-08-23T00:05:07.508Z,100093.63
2022-08-23T00:10:14.352Z,100096.63
2022-08-23T00:15:16.928Z,100093.31
2022-08-23T00:20:18.635Z,100086.25
2022-08-23T00:25:20.049Z,100087.31
2022-08-23T00:30:21.504Z,100090.06
2022-08-23T00:35:27.127Z,100087.28
2022-08-23T00:40:28.905Z,100094.38
2022-08-23T00:45:55.483Z,100085.97
2022-08-23T00:51:08.166Z,100085.66
2022-08-23T00:56:10.832Z,100087.09
2022-08-23T01:01:12.321Z,100079.94
2022-08-23T01:06:18.856Z,100074.13
2022-08-23T01:11:26.512Z,100065.91
2022-08-23T01:16:33.508Z,100076.03
2022-08-23T01:21:46.256Z,100081.28
2022-08-23T01:26:47.956Z,100076.03
2022-08-23T01:31:50.257Z,100071.94
2022-08-23T01:36:51.677Z,100078.22
2022-08-23T01:41:53.079Z,100074.59
2022-08-23T01:46:55.038Z,100078.72
2022-08-23T01:52:00.064Z,100085.03
2022-08-23T01:57:01.473Z,100083.19
2022-08-23T02:02:03.187Z,100081.47
2022-08-23T02:07:04.694Z,100085.03
2022-08-23T02:12:06.168Z,100084.25
2022-08-23T02:17:07.564Z,100083.69
2022-08-23T02:22:08.982Z,100087.78
2022-08-23T02:27:10.462Z,100093.00
2022-08-23T02:32:13.081Z,100091.59
2022-08-23T02:37:14.545Z,100092.16
2022-08-23T02:42:17.612Z,100091.03
2022-08-23T02:47:19.385Z,100085.56
2022-08-23T02:52:20.809Z,100089.97
2022-08-23T02:57:22.232Z,100088.03
2022-08-23T03:02:23.657Z,100094.09
2022-08-23T03:07:25.132Z,100091.03
2022-08-23T03:12:27.109Z,100096.75
2022-08-23T03:17:28.526Z,100092.44
2022-08-23T03:22:29.974Z,100103.06
2022-08-23T03:27:31.520Z,100102.00
2022-08-23T03:32:39.692Z,100095.44
2022-08-23T03:37:54.703Z,100100.66
2022-08-23T03:42:56.589Z,100104.19
2022-08-23T03:47:58.397Z,100112.47
2022-08-23T03:52:59.822Z,100118.44
2022-08-23T03:58:01.395Z,100124.75
2022-08-23T04:03:03.053Z,100123.88
2022-08-23T04:08:10.685Z,100118.97
2022-08-23T04:13:12.104Z,100119.47
2022-08-23T04:18:13.908Z,100121.25
2022-08-23T04:23:15.326Z,100125.28
2022-08-23T04:28:16.753Z,100135.75
2022-08-23T04:33:18.368Z,100140.31
2022-08-23T04:38:24.853Z,100135.06
2022-08-23T04:43:26.649Z,100131.31
2022-08-23T04:48:28.057Z,100141.06
2022-08-23T04:53:30.359Z,100139.72
2022-08-23T04:58:32.684Z,100145.53
2022-08-23T05:03:34.412Z,100142.47
2022-08-23T05:08:35.878Z,100146.03
2022-08-23T05:13:37.698Z,100147.44
2022-08-23T05:18:39.099Z,100149.06
2022-08-23T05:23:40.536Z,100153.03
2022-08-23T05:28:43.652Z,100150.69
2022-08-23T05:33:45.093Z,100156.84
2022-08-23T05:38:49.722Z,100165.38
2022-08-23T05:43:51.132Z,100163.16
2022-08-23T05:48:53.068Z,100167.81
2022-08-23T05:53:56.610Z,100166.41
2022-08-23T05:59:00.821Z,100173.84
2022-08-23T06:04:03.037Z,100172.78
2022-08-23T06:09:06.732Z,100181.75
2022-08-23T06:14:08.852Z,100179.09
2022-08-23T06:19:10.501Z,100184.31
2022-08-23T06:24:12.267Z,100192.03
2022-08-23T06:29:15.575Z,100181.63
2022-08-23T06:34:24.232Z,100186.22
2022-08-23T06:39:27.012Z,100183.56
2022-08-23T06:44:28.606Z,100187.06
2022-08-23T06:49:30.182Z,100186.03
2022-08-23T06:54:33.660Z,100194.53
2022-08-23T06:59:35.353Z,100211.50
2022-08-23T07:04:38.336Z,100210.13
2022-08-23T07:09:39.961Z,100212.50
2022-08-23T07:14:42.378Z,100218.53
2022-08-23T07:19:44.064Z,100221.50
2022-08-23T07:24:45.817Z,100226.06
2022-08-23T07:29:47.243Z,100235.53
2022-08-23T07:34:48.656Z,100233.66
2022-08-23T07:39:50.121Z,100232.63
2022-08-23T07:44:52.804Z,100238.41
2022-08-23T07:49:55.448Z,100235.00
2022-08-23T07:54:56.866Z,100235.31
2022-08-23T07:59:58.401Z,100234.63
2022-08-23T08:04:59.896Z,100240.91
2022-08-23T08:10:01.552Z,100241.19
2022-08-23T08:15:03.176Z,100249.06
2022-08-23T08:20:05.161Z,100246.88
2022-08-23T08:25:06.898Z,100255.09
2022-08-23T08:30:09.164Z,100252.38
2022-08-23T08:35:10.599Z,100252.56
2022-08-23T08:40:12.116Z,100249.69
2022-08-23T08:45:21.780Z,100243.50
2022-08-23T08:50:34.093Z,100256.13
2022-08-23T08:55:46.402Z,100242.16
2022-08-23T09:00:48.617Z,100245.97
2022-08-23T09:06:18.070Z,100248.41
2022-08-23T09:11:45.397Z,100245.16
2022-08-23T09:16:53.136Z,100245.28
2022-08-23T09:22:00.562Z,100249.56
2022-08-23T09:27:02.374Z,100247.66
2022-08-23T09:32:06.464Z,100245.22
2022-08-23T09:37:20.717Z,100246.13
2022-08-23T09:42:40.286Z,100248.41
2022-08-23T09:47:44.855Z,100244.59
2022-08-23T09:52:46.794Z,100245.97
2022-08-23T09:57:48.205Z,100244.59
2022-08-23T10:02:50.204Z,100246.88
2022-08-23T10:08:01.298Z,100257.56
2022-08-23T10:13:04.067Z,100250.44
2022-08-23T10:18:10.928Z,100255.09
2022-08-23T10:23:19.360Z,100252.06
2022-08-23T10:29:17.267Z,100250.78
2022-08-23T10:34:50.677Z,100261.25
2022-08-23T10:40:04.730Z,100261.88
2022-08-23T10:45:18.464Z,100258.88
2022-08-23T10:50:20.560Z,100259.53
2022-08-23T10:55:35.816Z,100259.16
2022-08-23T11:00:38.357Z,100261.69
2022-08-23T11:05:40.644Z,100272.16
2022-08-23T11:10:55.778Z,100265.56
2022-08-23T11:16:01.039Z,100256.78
2022-08-23T11:21:05.268Z,100264.50
2022-08-23T11:26:29.676Z,100254.09
2022-08-23T11:31:34.433Z,100273.56
2022-08-23T11:36:36.110Z,100271.22
2022-08-23T11:42:00.796Z,100269.72
2022-08-23T11:47:03.996Z,100271.91
2022-08-23T11:52:27.185Z,100270.09
2022-08-23T11:57:56.727Z,100274.97
2022-08-23T12:03:05.644Z,100274.50
2022-08-23T12:08:07.945Z,100272.97
2022-08-23T12:13:18.463Z,100275.22
2022-08-23T12:18:25.105Z,100277.66
2022-08-23T12:23:26.741Z,100269.28
2022-08-23T12:28:43.756Z,100278.84
2022-08-23T12:33:53.632Z,100268.47
2022-08-23T12:39:08.759Z,100270.38
2022-08-23T12:44:10.458Z,100274.78
2022-08-23T12:49:28.797Z,100269.72
2022-08-23T12:54:36.570Z,100272.84
2022-08-23T12:59:52.189Z,100279.88
2022-08-23T13:04:55.586Z,100266.31
2022-08-23T13:09:56.994Z,100257.06
2022-08-23T13:15:02.906Z,100264.94
2022-08-23T13:20:07.190Z,100265.81
2022-08-23T13:25:32.014Z,100278.50
2022-08-23T13:30:37.575Z,100278.28
2022-08-23T13:35:43.556Z,100271.44
2022-08-23T13:40:56.126Z,100274.66
2022-08-23T13:46:10.091Z,100270.09
2022-08-23T13:51:38.858Z,100273.34
2022-08-23T13:56:49.940Z,100267.66
2022-08-23T14:01:51.388Z,100271.53
2022-08-23T14:06:52.815Z,100269.63
2022-08-23T14:11:58.540Z,100267.06
2022-08-23T14:17:02.812Z,100268.56
2022-08-23T14:22:04.757Z,100260.41
2022-08-23T14:27:07.092Z,100270.84
2022-08-23T14:32:08.493Z,100265.88
2022-08-23T14:42:31.671Z,100265.63
2022-08-23T14:47:35.446Z,100261.44
2022-08-23T14:52:37.917Z,100260.72
2022-08-23T14:57:39.358Z,100255.38
2022-08-23T15:02:44.665Z,100250.06
2022-08-23T15:07:46.078Z,100262.41
2022-08-23T15:13:19.558Z,100256.06
2022-08-23T15:18:09.297Z,100261.94
2022-08-23T15:23:10.708Z,100256.13
2022-08-23T15:28:13.643Z,100261.25
2022-08-23T15:33:15.257Z,100261.19
2022-08-23T15:38:17.930Z,100261.47
2022-08-23T15:43:20.076Z,100256.38
2022-08-23T15:48:27.369Z,100262.84
2022-08-23T15:53:28.777Z,100262.22
2022-08-23T15:58:30.210Z,100259.34
2022-08-23T16:03:31.963Z,100253.47
2022-08-23T16:08:34.832Z,100243.25
2022-08-23T16:13:40.548Z,100234.88
2022-08-23T16:18:42.109Z,100238.06
2022-08-23T16:23:44.242Z,100233.75
2022-08-23T16:28:46.885Z,100236.41
2022-08-23T16:33:48.341Z,100230.91
2022-08-23T16:38:50.892Z,100230.13
2022-08-23T16:43:52.381Z,100232.50
2022-08-23T16:48:53.786Z,100244.59
2022-08-23T16:54:02.757Z,100239.28
2022-08-23T16:59:05.937Z,100246.63
2022-08-23T17:04:07.338Z,100245.22
2022-08-23T17:09:09.188Z,100242.03
2022-08-23T17:14:12.504Z,100247.09
2022-08-23T17:19:13.969Z,100247.72
2022-08-23T17:24:15.370Z,100260.47
2022-08-23T17:29:16.838Z,100252.81
2022-08-23T17:34:21.761Z,100260.47
2022-08-23T17:39:27.153Z,100248.59
2022-08-23T17:44:28.558Z,100264.38
2022-08-23T17:49:30.192Z,100261.34
2022-08-23T17:54:32.477Z,100271.72
2022-08-23T17:59:33.889Z,100275.66
2022-08-23T18:04:35.415Z,100283.16
2022-08-23T18:09:41.251Z,100298.13
2022-08-23T18:14:46.521Z,100302.28
2022-08-23T18:19:47.986Z,100308.75
2022-08-23T18:24:49.430Z,100308.53
2022-08-23T18:29:51.691Z,100311.22
2022-08-23T18:34:53.305Z,100331.66
2022-08-23T18:39:54.746Z,100320.97
2022-08-23T18:44:56.160Z,100331.47
2022-08-23T18:49:57.569Z,100335.03
2022-08-23T18:54:59.053Z,100350.88
2022-08-23T19:00:00.456Z,100355.84
2022-08-23T19:05:03.120Z,100363.00
2022-08-23T19:10:04.844Z,100353.69
2022-08-23T19:15:06.898Z,100355.66
2022-08-23T19:20:08.989Z,100364.00
2022-08-23T19:25:10.550Z,100368.53
2022-08-23T19:30:12.505Z,100371.91
2022-08-23T19:35:18.808Z,100381.19
2022-08-23T19:40:20.552Z,100380.66
2022-08-23T19:45:22.118Z,100381.97
2022-08-23T19:50:23.876Z,100384.88
2022-08-23T19:55:27.212Z,100386.47
2022-08-23T20:00:31.359Z,100388.22
2022-08-23T20:05:34.153Z,100390.22
2022-08-23T20:10:35.562Z,100390.72
2022-08-23T20:15:38.642Z,100388.03
2022-08-23T20:20:40.853Z,100395.81
2022-08-23T20:25:42.717Z,100392.34
2022-08-23T20:30:44.128Z,100393.88
2022-08-23T20:35:45.616Z,100395.81
2022-08-23T20:40:47.008Z,100393.16
2022-08-23T20:45:49.045Z,100386.56
2022-08-23T20:50:50.452Z,100393.78
2022-08-23T20:55:51.904Z,100386.22
2022-08-23T21:00:53.502Z,100389.97
2022-08-23T21:06:08.500Z,100402.31
2022-08-23T21:11:10.212Z,100398.66
2022-08-23T21:16:11.986Z,100397.38
2022-08-23T21:21:13.550Z,100397.94
2022-08-23T21:26:15.760Z,100400.13
2022-08-23T21:31:20.422Z,100395.47
2022-08-23T21:36:22.301Z,100392.06
2022-08-23T21:41:28.964Z,100393.03
2022-08-23T21:46:30.419Z,100380.91
2022-08-23T21:51:31.924Z,100382.06
2022-08-23T21:56:36.848Z,100387.31
2022-08-23T22:01:38.550Z,100384.22
2022-08-23T22:06:41.475Z,100392.72
2022-08-23T22:11:43.672Z,100382.19
2022-08-23T22:16:45.084Z,100381.16
2022-08-23T22:21:47.312Z,100376.00
2022-08-23T22:26:48.712Z,100376.94
2022-08-23T22:31:50.153Z,100371.00
2022-08-23T22:36:52.638Z,100369.53
2022-08-23T22:41:54.838Z,100372.06
2022-08-23T22:46:57.102Z,100373.41
2022-08-23T22:51:58.508Z,100372.06
2022-08-23T22:57:00.130Z,100369.25
2022-08-23T23:02:03.397Z,100368.84
2022-08-23T23:07:05.104Z,100370.09
2022-08-23T23:12:06.557Z,100369.13
2022-08-23T23:17:08.023Z,100364.53
2022-08-23T23:22:09.477Z,100370.59
2022-08-23T23:27:10.892Z,100376.94
2022-08-23T23:32:12.304Z,100370.25
2022-08-23T23:37:14.692Z,100374.13
2022-08-23T23:42:16.229Z,100363.63
2022-08-23T23:47:17.758Z,100366.72
2022-08-23T23:52:19.599Z,100366.94
2022-08-23T23:57:21.156Z,100365.22
